Terminal Aerodrome Forecast
Issued by NWS Indianapolis, IN

Home | Current Version | Previous Version | Text Only | Print | Product List | Glossary On
Versions: 1 2 3 4 5 6 7 8 9 10 11 12 13 14 15 16 17 18 19 20 21 22 23 24 25 26 27 28 29
266
FTUS43 KIND 272027 AAA
TAFIND
TAF AMD
KIND 272027Z 2720/2824 31006KT P6SM SCT035
     FM280500 11004KT P6SM VCTS BKN120CB
     FM280800 14005KT P6SM SHRA VCTS BKN030CB
     FM281100 16005KT 6SM BR VCTS BKN015CB=

USA.gov is the U.S. government's official web portal to all federal, state and local government web resources and services.